createdAt,value
2018-01-11T00:01:23.395Z,26.33
2018-01-11T00:03:26.024Z,27.50
2018-01-11T00:05:29.445Z,26.83
2018-01-11T00:07:32.125Z,27.27
2018-01-11T00:09:34.774Z,29.53
2018-01-11T00:11:38.200Z,48.93
2018-01-11T00:13:40.870Z,30.33
2018-01-11T00:15:49.747Z,31.40
2018-01-11T00:17:52.399Z,28.03
2018-01-11T00:19:55.076Z,32.00
2018-01-11T00:21:57.737Z,29.00
2018-01-11T00:24:00.376Z,31.90
2018-01-11T00:26:03.080Z,29.20
2018-01-11T00:28:05.727Z,29.00
2018-01-11T00:30:08.356Z,31.00
2018-01-11T00:32:11.109Z,30.50
2018-01-11T00:34:13.779Z,29.97
2018-01-11T00:36:16.428Z,24.37
2018-01-11T00:38:19.112Z,25.73
2018-01-11T00:40:21.746Z,28.07
2018-01-11T00:42:25.169Z,31.10
2018-01-11T00:44:27.845Z,28.83
2018-01-11T00:46:30.479Z,30.83
2018-01-11T00:48:33.141Z,32.10
2018-01-11T00:50:35.816Z,28.77
2018-01-11T00:52:38.465Z,34.50
2018-01-11T00:54:41.099Z,44.30
2018-01-11T00:56:44.543Z,33.50
2018-01-11T00:58:47.180Z,32.67
2018-01-11T01:00:49.840Z,34.10
2018-01-11T01:02:53.273Z,28.30
2018-01-11T01:04:55.921Z,32.93
2018-01-11T01:06:58.581Z,32.60
2018-01-11T01:09:02.027Z,26.30
2018-01-11T01:11:04.700Z,33.43
2018-01-11T01:13:07.344Z,27.53
2018-01-11T01:15:10.006Z,31.03
2018-01-11T01:17:13.419Z,28.03
2018-01-11T01:19:16.055Z,28.83
2018-01-11T01:21:19.494Z,32.17
2018-01-11T01:23:22.140Z,34.97
2018-01-11T01:25:25.644Z,37.70
2018-01-11T01:27:28.332Z,35.80
2018-01-11T01:29:30.976Z,29.87
2018-01-11T01:31:34.376Z,30.03
2018-01-11T01:33:37.054Z,38.33
2018-01-11T01:35:39.711Z,32.40
2018-01-11T01:37:43.113Z,33.80
2018-01-11T01:39:46.577Z,34.33
2018-01-11T01:41:49.283Z,42.07
2018-01-11T01:43:51.989Z,41.87
2018-01-11T01:45:55.032Z,42.60
2018-01-11T01:47:58.510Z,48.13
2018-01-11T01:50:01.212Z,56.57
2018-01-11T01:52:04.756Z,46.47
2018-01-11T01:54:07.526Z,65.77
2018-01-11T01:56:10.489Z,43.27
2018-01-11T01:58:13.291Z,37.47
2018-01-11T02:00:16.041Z,49.20
2018-01-11T02:02:18.889Z,48.40
2018-01-11T02:04:21.723Z,46.67
2018-01-11T02:06:24.802Z,46.33
2018-01-11T02:08:27.592Z,47.27
2018-01-11T02:10:30.279Z,44.77
2018-01-11T02:12:33.035Z,36.70
2018-01-11T02:14:35.827Z,45.20
2018-01-11T02:16:38.611Z,45.97
2018-01-11T02:18:42.161Z,45.37
2018-01-11T02:20:44.914Z,41.33
2018-01-11T02:22:47.638Z,44.27
2018-01-11T02:24:50.439Z,40.40
2018-01-11T02:26:53.240Z,42.63
2018-01-11T02:28:56.003Z,41.03
2018-01-11T02:30:59.595Z,39.67
2018-01-11T02:33:02.410Z,34.93
2018-01-11T02:35:05.148Z,44.10
2018-01-11T02:37:07.837Z,45.33
2018-01-11T02:39:10.598Z,47.90
2018-01-11T02:41:13.393Z,43.30
2018-01-11T02:43:23.964Z,43.53
2018-01-11T02:45:27.471Z,40.30
2018-01-11T02:47:30.931Z,46.13
2018-01-11T02:49:33.669Z,46.23
2018-01-11T02:51:36.446Z,45.30
2018-01-11T02:53:39.123Z,43.00
2018-01-11T02:55:41.822Z,53.03
2018-01-11T02:57:44.629Z,47.53
2018-01-11T02:59:47.481Z,48.73
2018-01-11T03:01:50.211Z,50.67
2018-01-11T03:03:52.862Z,59.60
2018-01-11T03:05:56.294Z,53.77
2018-01-11T03:07:58.992Z,43.67
2018-01-11T03:10:01.657Z,44.53
2018-01-11T03:12:04.319Z,48.43
2018-01-11T03:14:06.997Z,51.03
2018-01-11T03:16:09.638Z,39.40
2018-01-11T03:18:13.035Z,55.37
2018-01-11T03:20:16.478Z,46.33
2018-01-11T03:22:19.130Z,45.80
2018-01-11T03:24:25.473Z,56.73
2018-01-11T03:26:28.146Z,51.53
2018-01-11T03:28:30.809Z,48.53
2018-01-11T03:30:40.026Z,45.43
2018-01-11T03:32:42.696Z,50.73
2018-01-11T03:34:45.335Z,44.70
2018-01-11T03:36:48.007Z,43.27
2018-01-11T03:38:50.759Z,46.93
2018-01-11T03:40:54.190Z,46.70
2018-01-11T03:42:57.020Z,53.67
2018-01-11T03:44:59.779Z,40.43
2018-01-11T03:47:07.617Z,39.70
2018-01-11T03:49:10.411Z,42.37
2018-01-11T03:51:15.017Z,41.07
2018-01-11T03:53:17.758Z,47.13
2018-01-11T03:55:20.503Z,46.20
2018-01-11T03:57:23.235Z,52.53
2018-01-11T03:59:25.999Z,47.70
2018-01-11T04:01:28.706Z,42.27
2018-01-11T04:03:31.350Z,47.60
2018-01-11T04:05:34.759Z,40.60
2018-01-11T04:07:40.611Z,42.30
2018-01-11T04:09:43.254Z,49.47
2018-01-11T04:11:47.687Z,43.27
2018-01-11T04:13:51.120Z,39.90
2018-01-11T04:15:53.841Z,42.37
2018-01-11T04:18:05.322Z,41.80
2018-01-11T04:20:08.049Z,46.60
2018-01-11T04:22:10.709Z,43.97
2018-01-11T04:24:13.484Z,38.40
2018-01-11T04:26:19.258Z,57.63
2018-01-11T04:28:21.920Z,43.00
2018-01-11T04:30:28.470Z,41.40
2018-01-11T04:32:35.043Z,42.73
2018-01-11T04:34:37.705Z,41.70
2018-01-11T04:36:40.346Z,41.20
2018-01-11T04:38:43.011Z,40.40
2018-01-11T04:40:45.656Z,42.10
2018-01-11T04:43:04.971Z,44.90
2018-01-11T04:45:11.799Z,44.10
2018-01-11T04:47:14.431Z,47.63
2018-01-11T04:49:17.830Z,51.07
2018-01-11T04:51:20.513Z,46.37
2018-01-11T04:53:23.148Z,42.80
2018-01-11T04:55:25.775Z,46.77
2018-01-11T04:57:28.717Z,39.93
2018-01-11T04:59:32.126Z,37.07
2018-01-11T05:01:34.774Z,45.93
2018-01-11T05:03:38.221Z,45.93
2018-01-11T05:05:40.879Z,46.23
2018-01-11T05:07:43.537Z,42.47
2018-01-11T05:09:46.852Z,55.50
2018-01-11T05:11:50.373Z,48.47
2018-01-11T05:13:53.020Z,42.30
2018-01-11T05:15:55.686Z,44.53
2018-01-11T05:17:58.310Z,44.37
2018-01-11T05:20:00.963Z,50.97
2018-01-11T05:22:03.634Z,49.20
2018-01-11T05:24:06.293Z,47.10
2018-01-11T05:26:08.936Z,48.43
2018-01-11T05:28:12.363Z,52.10
2018-01-11T05:30:15.028Z,43.30
2018-01-11T05:32:17.684Z,44.33
2018-01-11T05:34:21.123Z,48.73
2018-01-11T05:36:23.810Z,41.20
2018-01-11T05:38:26.461Z,46.17
2018-01-11T05:40:29.131Z,49.07
2018-01-11T05:42:31.789Z,41.03
2018-01-11T05:44:34.677Z,42.97
2018-01-11T05:46:50.359Z,48.03
2018-01-11T05:48:53.020Z,50.70
2018-01-11T05:50:55.678Z,55.80
2018-01-11T05:52:59.193Z,52.80
2018-01-11T05:55:01.824Z,45.10
2018-01-11T05:57:04.484Z,49.00
2018-01-11T05:59:10.811Z,49.83
2018-01-11T06:01:13.453Z,50.63
2018-01-11T06:03:16.846Z,47.40
2018-01-11T06:05:20.294Z,50.03
2018-01-11T06:07:22.926Z,51.40
2018-01-11T06:09:36.918Z,58.77
2018-01-11T06:11:39.583Z,53.10
2018-01-11T06:13:42.220Z,55.13
2018-01-11T06:15:44.896Z,49.13
2018-01-11T06:17:47.549Z,47.73
2018-01-11T06:19:50.948Z,51.07
2018-01-11T06:21:54.381Z,55.00
2018-01-11T06:23:59.097Z,50.87
2018-01-11T06:26:01.738Z,46.43
2018-01-11T06:28:05.588Z,50.27
2018-01-11T06:30:08.243Z,88.07
2018-01-11T06:32:10.891Z,50.60
2018-01-11T06:34:13.574Z,56.13
2018-01-11T06:36:16.225Z,46.63
2018-01-11T06:38:18.882Z,52.70
2018-01-11T06:40:21.542Z,47.87
2018-01-11T06:42:24.212Z,49.33
2018-01-11T06:44:26.864Z,51.27
2018-01-11T06:46:29.550Z,53.07
2018-01-11T06:48:32.196Z,52.80
2018-01-11T06:50:35.605Z,49.37
2018-01-11T06:52:38.276Z,58.07
2018-01-11T06:54:40.924Z,53.43
2018-01-11T06:56:44.310Z,44.70
2018-01-11T06:58:46.983Z,47.20
2018-01-11T07:00:49.609Z,61.20
2018-01-11T07:02:52.265Z,69.77
2018-01-11T07:04:54.951Z,54.20
2018-01-11T07:06:57.614Z,51.60
2018-01-11T07:09:00.279Z,70.83
2018-01-11T07:11:02.971Z,70.33
2018-01-11T07:13:11.861Z,57.93
2018-01-11T07:15:15.285Z,52.27
2018-01-11T07:17:17.977Z,55.13
2018-01-11T07:19:20.622Z,64.00
2018-01-11T07:21:24.021Z,67.07
2018-01-11T07:23:26.704Z,49.30
2018-01-11T07:25:29.372Z,53.53
2018-01-11T07:27:32.014Z,83.20
2018-01-11T07:29:34.711Z,61.67
2018-01-11T07:31:37.361Z,66.77
2018-01-11T07:33:40.000Z,63.93
2018-01-11T07:35:42.705Z,57.03
2018-01-11T07:37:45.354Z,77.73
2018-01-11T07:42:22.712Z,71.17
2018-01-11T07:44:26.105Z,59.80
2018-01-11T07:46:28.782Z,59.60
2018-01-11T07:48:31.439Z,96.63
2018-01-11T07:50:34.855Z,78.13
2018-01-11T07:52:37.533Z,66.37
2018-01-11T07:54:40.192Z,64.23
2018-01-11T07:56:43.636Z,65.13
2018-01-11T07:58:52.740Z,54.63
2018-01-11T08:00:55.391Z,60.07
2018-01-11T08:02:58.151Z,53.87
2018-01-11T08:05:01.555Z,51.70
2018-01-11T08:07:04.960Z,56.23
2018-01-11T08:09:07.631Z,51.00
2018-01-11T08:11:10.277Z,56.67
2018-01-11T08:13:13.683Z,49.83
2018-01-11T08:15:17.146Z,47.20
2018-01-11T08:17:19.771Z,54.50
2018-01-11T08:19:22.428Z,63.53
2018-01-11T08:21:25.889Z,50.67
2018-01-11T08:23:28.543Z,63.27
2018-01-11T08:25:31.206Z,49.43
2018-01-11T08:27:33.885Z,57.77
2018-01-11T08:29:36.542Z,47.73
2018-01-11T08:31:39.211Z,48.57
2018-01-11T08:33:41.892Z,45.67
2018-01-11T08:35:44.544Z,47.13
2018-01-11T08:37:47.233Z,48.10
2018-01-11T08:39:49.916Z,50.33
2018-01-11T08:41:52.569Z,53.00
2018-01-11T08:43:56.011Z,46.57
2018-01-11T08:45:58.689Z,48.93
2018-01-11T08:48:01.376Z,41.20
2018-01-11T08:50:04.011Z,53.10
2018-01-11T08:52:06.705Z,47.40
2018-01-11T08:54:09.367Z,46.00
2018-01-11T08:56:11.998Z,46.83
2018-01-11T08:58:14.673Z,38.23
2018-01-11T09:00:17.297Z,44.07
2018-01-11T09:02:19.929Z,44.63
2018-01-11T09:04:24.382Z,40.73
2018-01-11T09:06:27.032Z,39.67
2018-01-11T09:08:30.423Z,42.37
2018-01-11T09:10:33.853Z,36.60
2018-01-11T09:12:36.496Z,38.63
2018-01-11T09:14:39.152Z,44.93
2018-01-11T09:16:41.806Z,36.40
2018-01-11T09:18:44.436Z,40.20
2018-01-11T09:20:47.078Z,49.10
2018-01-11T09:22:50.511Z,40.63
2018-01-11T09:24:54.043Z,36.43
2018-01-11T09:26:56.683Z,40.97
2018-01-11T09:28:59.352Z,38.03
2018-01-11T09:31:01.999Z,47.53
2018-01-11T09:33:06.120Z,41.60
2018-01-11T09:35:08.750Z,35.60
2018-01-11T09:37:14.608Z,35.67
2018-01-11T09:39:17.390Z,40.80
2018-01-11T09:41:20.027Z,34.10
2018-01-11T09:43:23.701Z,34.80
2018-01-11T09:45:26.376Z,39.17
2018-01-11T09:47:30.178Z,28.70
2018-01-11T09:49:32.804Z,37.77
2018-01-11T09:51:35.475Z,34.60
2018-01-11T09:53:38.150Z,29.57
2018-01-11T09:55:40.837Z,33.90
2018-01-11T09:57:43.521Z,32.17
2018-01-11T09:59:46.154Z,32.10
2018-01-11T10:01:48.796Z,28.93
2018-01-11T10:03:51.470Z,28.40
2018-01-11T10:05:54.102Z,33.33
2018-01-11T10:07:56.769Z,29.97
2018-01-11T10:09:59.431Z,39.97
2018-01-11T10:12:02.094Z,29.17
2018-01-11T10:14:04.728Z,32.57
2018-01-11T10:16:08.172Z,26.67
2018-01-11T10:18:10.806Z,31.87
2018-01-11T10:20:13.467Z,33.70
2018-01-11T10:22:16.921Z,35.80
2018-01-11T10:24:19.639Z,32.60
2018-01-11T10:26:23.046Z,30.60
2018-01-11T10:28:26.763Z,32.30
2018-01-11T10:30:30.254Z,34.77
2018-01-11T10:32:32.881Z,30.10
2018-01-11T10:34:35.546Z,32.73
2018-01-11T10:36:38.211Z,33.23
2018-01-11T10:38:42.801Z,33.37
2018-01-11T10:40:45.466Z,27.03
2018-01-11T10:42:48.313Z,27.23
2018-01-11T10:44:50.985Z,33.20
2018-01-11T10:46:58.429Z,28.80
2018-01-11T10:49:01.192Z,24.93
2018-01-11T10:51:03.849Z,28.00
2018-01-11T10:53:06.491Z,33.00
2018-01-11T10:55:09.148Z,27.17
2018-01-11T10:57:11.796Z,28.10
2018-01-11T10:59:14.465Z,25.80
2018-01-11T11:01:22.680Z,33.60
2018-01-11T11:03:25.323Z,30.63
2018-01-11T11:05:28.744Z,27.60
2018-01-11T11:07:32.323Z,28.20
2018-01-11T11:09:35.069Z,31.00
2018-01-11T11:11:38.502Z,30.30
2018-01-11T11:13:41.172Z,27.33
2018-01-11T11:15:43.821Z,29.70
2018-01-11T11:17:47.265Z,32.40
2018-01-11T11:19:49.899Z,33.20
2018-01-11T11:21:53.327Z,37.90
2018-01-11T11:23:55.971Z,39.67
2018-01-11T11:25:58.641Z,30.70
2018-01-11T11:28:02.041Z,29.43
2018-01-11T11:30:04.675Z,27.93
2018-01-11T11:32:07.338Z,27.20
2018-01-11T11:34:09.962Z,27.63
2018-01-11T11:36:12.613Z,23.43
2018-01-11T11:38:16.052Z,22.03
2018-01-11T11:40:18.686Z,24.23
2018-01-11T11:42:22.100Z,22.13
2018-01-11T11:44:24.792Z,20.90
2018-01-11T11:46:27.426Z,22.70
2018-01-11T11:48:30.838Z,26.23
2018-01-11T11:50:33.501Z,26.17
2018-01-11T11:52:36.925Z,23.67
2018-01-11T11:54:39.595Z,26.63
2018-01-11T11:56:43.088Z,24.80
2018-01-11T11:58:46.880Z,22.00
2018-01-11T12:00:49.545Z,24.13
2018-01-11T12:02:52.956Z,20.93
2018-01-11T12:04:55.610Z,30.60
2018-01-11T12:06:59.016Z,29.60
2018-01-11T12:09:01.672Z,25.73
2018-01-11T12:11:05.097Z,19.50
2018-01-11T12:13:07.864Z,19.60
2018-01-11T12:15:10.536Z,21.13
2018-01-11T12:17:13.172Z,19.67
2018-01-11T12:19:15.814Z,20.00
2018-01-11T12:21:18.475Z,19.30
2018-01-11T12:23:21.090Z,21.17
2018-01-11T12:25:23.729Z,21.77
2018-01-11T12:27:26.403Z,27.77
2018-01-11T12:29:29.045Z,26.40
2018-01-11T12:31:32.457Z,32.87
2018-01-11T12:33:35.144Z,23.77
2018-01-11T12:35:37.774Z,23.23
2018-01-11T12:37:41.162Z,22.37
2018-01-11T12:39:44.620Z,21.43
2018-01-11T12:41:47.244Z,24.73
2018-01-11T12:43:50.638Z,23.13
2018-01-11T12:45:54.074Z,19.37
2018-01-11T12:47:56.718Z,27.07
2018-01-11T12:49:59.366Z,27.13
2018-01-11T12:52:02.062Z,26.63
2018-01-11T12:54:04.692Z,26.43
2018-01-11T12:56:07.466Z,24.20
2018-01-11T12:58:10.156Z,24.23
2018-01-11T13:00:12.810Z,29.20
2018-01-11T13:02:15.453Z,26.67
2018-01-11T13:04:18.129Z,30.77
2018-01-11T13:06:20.760Z,28.00
2018-01-11T13:08:23.609Z,30.97
2018-01-11T13:10:26.298Z,31.40
2018-01-11T13:12:29.033Z,29.90
2018-01-11T13:14:32.444Z,26.13
2018-01-11T13:16:35.116Z,27.47
2018-01-11T13:18:37.767Z,23.10
2018-01-11T13:20:40.415Z,22.63
2018-01-11T13:22:43.834Z,22.27
2018-01-11T13:24:47.510Z,22.90
2018-01-11T13:26:51.054Z,34.47
2018-01-11T13:28:53.732Z,27.47
2018-01-11T13:33:06.113Z,28.50
2018-01-11T13:35:08.875Z,30.00
2018-01-11T13:37:12.310Z,24.63
2018-01-11T13:39:15.052Z,31.93
2018-01-11T13:41:17.675Z,31.97
2018-01-11T13:43:20.321Z,28.50
2018-01-11T13:45:23.003Z,34.57
2018-01-11T13:47:25.655Z,32.07
2018-01-11T13:49:28.293Z,29.60
2018-01-11T13:51:30.963Z,32.67
2018-01-11T13:53:33.612Z,32.90
2018-01-11T13:55:36.257Z,33.10
2018-01-11T13:57:38.938Z,32.20
2018-01-11T13:59:41.571Z,36.53
2018-01-11T14:01:44.236Z,33.63
2018-01-11T14:03:46.921Z,33.50
2018-01-11T14:05:49.568Z,34.63
2018-01-11T14:07:52.212Z,36.47
2018-01-11T14:09:54.877Z,31.00
2018-01-11T14:11:57.552Z,32.97
2018-01-11T14:14:00.965Z,31.10
2018-01-11T14:16:03.654Z,36.23
2018-01-11T14:18:06.314Z,34.67
2018-01-11T14:20:09.009Z,39.97
2018-01-11T14:22:11.656Z,33.73
2018-01-11T14:24:14.362Z,31.53
2018-01-11T14:26:17.750Z,31.40
2018-01-11T14:28:20.403Z,38.40
2018-01-11T14:30:23.239Z,35.10
2018-01-11T14:32:25.880Z,39.20
2018-01-11T14:34:28.546Z,37.87
2018-01-11T14:36:31.204Z,41.87
2018-01-11T14:38:33.857Z,33.53
2018-01-11T14:40:37.298Z,44.93
2018-01-11T14:42:39.940Z,42.53
2018-01-11T14:44:42.602Z,36.10
2018-01-11T14:46:46.043Z,35.67
2018-01-11T14:48:48.710Z,38.13
2018-01-11T14:50:51.359Z,43.33
2018-01-11T14:52:54.038Z,36.73
2018-01-11T14:54:56.837Z,40.23
2018-01-11T14:56:59.508Z,43.27
2018-01-11T14:59:02.153Z,42.87
2018-01-11T15:01:05.576Z,39.90
2018-01-11T15:03:09.282Z,51.67
2018-01-11T15:05:19.604Z,46.03
2018-01-11T15:07:22.274Z,40.63
2018-01-11T15:09:25.721Z,44.33
2018-01-11T15:11:28.380Z,44.87
2018-01-11T15:13:31.029Z,60.10
2018-01-11T15:15:34.746Z,64.60
2018-01-11T15:17:37.433Z,45.33
2018-01-11T15:19:40.091Z,41.23
2018-01-11T15:21:42.783Z,48.73
2018-01-11T15:23:45.580Z,49.13
2018-01-11T15:25:48.491Z,54.13
2018-01-11T15:27:51.983Z,53.03
2018-01-11T15:29:54.647Z,46.30
2018-01-11T15:31:57.299Z,44.67
2018-01-11T15:33:59.963Z,39.93
2018-01-11T15:36:02.747Z,46.33
2018-01-11T15:38:05.442Z,49.00
2018-01-11T15:40:08.339Z,51.80
2018-01-11T15:42:11.763Z,49.37
2018-01-11T15:44:14.449Z,51.23
2018-01-11T15:46:17.098Z,47.30
2018-01-11T15:48:20.520Z,49.67
2018-01-11T15:50:23.194Z,64.03
2018-01-11T15:52:25.842Z,65.20
2018-01-11T15:54:28.501Z,65.00
2018-01-11T15:56:31.930Z,66.13
2018-01-11T15:58:34.570Z,65.53
2018-01-11T16:00:37.996Z,60.87
2018-01-11T16:02:40.673Z,64.80
2018-01-11T16:04:43.333Z,55.70
2018-01-11T16:06:51.112Z,58.57
2018-01-11T16:08:54.557Z,60.63
2018-01-11T16:10:57.210Z,60.70
2018-01-11T16:12:59.853Z,78.83
2018-01-11T16:15:03.311Z,58.90
2018-01-11T16:17:05.973Z,60.23
2018-01-11T16:19:08.607Z,57.17
2018-01-11T16:21:11.301Z,70.93
2018-01-11T16:23:13.966Z,67.67
2018-01-11T16:25:16.627Z,72.27
2018-01-11T16:27:19.288Z,80.47
2018-01-11T16:29:22.798Z,77.10
2018-01-11T16:31:47.343Z,81.17
2018-01-11T16:36:20.357Z,88.90
2018-01-11T16:38:23.076Z,99.00
2018-01-11T16:40:25.788Z,95.53
2018-01-11T16:42:28.461Z,84.17
2018-01-11T16:44:31.157Z,93.83
2018-01-11T16:46:40.024Z,102.13
2018-01-11T16:48:44.124Z,88.67
2018-01-11T16:50:50.829Z,91.80
2018-01-11T16:52:53.490Z,100.20
2018-01-11T16:54:57.027Z,95.50
2018-01-11T16:56:59.700Z,105.83
2018-01-11T16:59:08.314Z,102.27
2018-01-11T17:01:11.019Z,92.37
2018-01-11T17:03:13.770Z,102.10
2018-01-11T17:05:16.446Z,91.90
2018-01-11T17:07:19.128Z,101.03
2018-01-11T17:09:21.845Z,109.57
2018-01-11T17:11:24.548Z,96.00
2018-01-11T17:13:27.223Z,99.50
2018-01-11T17:15:29.917Z,99.97
2018-01-11T17:17:32.613Z,92.60
2018-01-11T17:19:36.043Z,81.50
2018-01-11T17:21:38.737Z,88.03
2018-01-11T17:23:41.399Z,83.00
2018-01-11T17:25:44.064Z,99.80
2018-01-11T17:27:46.720Z,89.23
2018-01-11T17:29:50.133Z,96.67
2018-01-11T17:31:52.792Z,96.10
2018-01-11T17:33:55.443Z,97.60
2018-01-11T17:35:58.075Z,153.30
2018-01-11T17:38:00.762Z,251.57
2018-01-11T17:40:03.441Z,141.63
2018-01-11T17:42:06.105Z,125.47
2018-01-11T17:44:08.777Z,99.13
2018-01-11T17:46:11.419Z,102.47
2018-01-11T17:48:34.128Z,110.37
2018-01-11T17:50:37.811Z,115.77
2018-01-11T17:52:40.464Z,110.37
2018-01-11T17:54:43.150Z,109.80
2018-01-11T17:56:45.866Z,106.73
2018-01-11T17:58:49.347Z,115.60
2018-01-11T18:00:51.989Z,96.07
2018-01-11T18:02:54.650Z,100.60
2018-01-11T18:04:57.307Z,98.67
2018-01-11T18:06:59.995Z,120.77
2018-01-11T18:09:03.550Z,98.03
2018-01-11T18:11:06.995Z,119.20
2018-01-11T18:13:09.712Z,119.53
2018-01-11T18:15:12.569Z,119.70
2018-01-11T18:17:15.327Z,109.60
2018-01-11T18:19:17.989Z,112.40
2018-01-11T18:21:22.736Z,109.70
2018-01-11T18:23:26.535Z,104.77
2018-01-11T18:25:29.195Z,116.17
2018-01-11T18:27:34.971Z,110.63
2018-01-11T18:29:37.644Z,107.43
2018-01-11T18:31:40.322Z,115.33
2018-01-11T18:33:43.017Z,102.00
2018-01-11T18:35:45.881Z,107.30
2018-01-11T18:37:48.562Z,99.30
2018-01-11T18:39:51.325Z,102.60
2018-01-11T18:41:54.000Z,106.03
2018-01-11T18:43:56.679Z,100.97
2018-01-11T18:45:59.368Z,102.17
2018-01-11T18:48:02.119Z,100.03
2018-01-11T18:50:04.779Z,100.63
2018-01-11T18:52:08.508Z,100.60
2018-01-11T18:54:11.224Z,103.03
2018-01-11T18:56:14.650Z,123.20
2018-01-11T18:58:17.330Z,103.93
2018-01-11T19:00:21.018Z,117.63
2018-01-11T19:02:23.658Z,130.73
2018-01-11T19:04:27.085Z,124.07
2018-01-11T19:06:29.737Z,126.97
2018-01-11T19:08:35.183Z,150.27
2018-01-11T19:10:37.851Z,145.47
2018-01-11T19:12:41.279Z,145.00
2018-01-11T19:14:44.196Z,143.40
2018-01-11T19:16:46.881Z,160.47
2018-01-11T19:18:49.528Z,136.63
2018-01-11T19:20:52.164Z,187.00
2018-01-11T19:22:54.835Z,231.13
2018-01-11T19:24:59.453Z,236.47
2018-01-11T19:27:02.113Z,218.43
2018-01-11T19:29:05.616Z,220.87
2018-01-11T19:31:08.242Z,250.70
2018-01-11T19:33:14.416Z,190.07
2018-01-11T19:35:19.414Z,243.37
2018-01-11T19:37:22.074Z,255.47
2018-01-11T19:39:28.434Z,215.57
2018-01-11T19:41:34.320Z,238.53
2018-01-11T19:43:36.972Z,205.87
2018-01-11T19:45:39.621Z,239.00
2018-01-11T19:47:42.282Z,221.47
2018-01-11T19:49:45.685Z,217.57
2018-01-11T19:51:49.095Z,226.03
2018-01-11T19:53:51.769Z,210.63
2018-01-11T19:55:54.412Z,204.80
2018-01-11T19:57:58.858Z,269.73
2018-01-11T20:00:01.517Z,198.90
2018-01-11T20:02:05.950Z,207.17
2018-01-11T20:04:08.735Z,207.83
2018-01-11T20:06:11.523Z,239.17
2018-01-11T20:08:14.171Z,230.73
2018-01-11T20:10:19.347Z,218.37
2018-01-11T20:12:22.043Z,252.03
2018-01-11T20:14:24.698Z,244.13
2018-01-11T20:16:27.322Z,272.83
2018-01-11T20:18:30.010Z,243.57
2018-01-11T20:20:32.675Z,293.17
2018-01-11T20:22:37.653Z,229.13
2018-01-11T20:24:40.322Z,258.80
2018-01-11T20:26:42.976Z,233.27
2018-01-11T20:28:45.669Z,195.13
2018-01-11T20:30:48.325Z,234.07
2018-01-11T20:32:50.968Z,233.70
2018-01-11T20:34:54.429Z,213.60
2018-01-11T20:36:57.112Z,191.17
2018-01-11T20:39:00.777Z,229.57
2018-01-11T20:41:07.296Z,241.90
2018-01-11T20:43:10.853Z,227.47
2018-01-11T20:45:13.521Z,261.20
2018-01-11T20:47:16.158Z,254.70
2018-01-11T20:49:22.556Z,304.30
2018-01-11T20:51:25.210Z,250.17
2018-01-11T20:53:28.048Z,282.23
2018-01-11T20:55:30.759Z,277.43
2018-01-11T20:57:33.399Z,297.03
2018-01-11T20:59:36.038Z,261.30
2018-01-11T21:01:38.694Z,264.13
2018-01-11T21:03:41.459Z,260.97
2018-01-11T21:05:44.087Z,259.10
2018-01-11T21:07:46.849Z,237.90
2018-01-11T21:09:49.568Z,273.23
2018-01-11T21:11:52.197Z,277.90
2018-01-11T21:13:54.859Z,284.10
2018-01-11T21:15:57.497Z,216.17
2018-01-11T21:18:00.149Z,204.37
2018-01-11T21:20:02.848Z,198.47
2018-01-11T21:22:05.506Z,209.57
2018-01-11T21:24:08.941Z,192.73
2018-01-11T21:26:11.591Z,203.57
2018-01-11T21:28:14.245Z,223.87
2018-01-11T21:30:22.499Z,205.40
2018-01-11T21:32:25.151Z,225.70
2018-01-11T21:34:27.841Z,216.67
2018-01-11T21:36:30.589Z,222.77
2018-01-11T21:38:34.006Z,208.00
2018-01-11T21:40:36.691Z,202.27
2018-01-11T21:42:39.432Z,228.27
2018-01-11T21:44:42.842Z,184.10
2018-01-11T21:46:45.508Z,213.07
2018-01-11T21:48:48.953Z,220.83
2018-01-11T21:50:51.600Z,283.37
2018-01-11T21:52:54.272Z,257.80
2018-01-11T21:54:56.918Z,199.63
2018-01-11T21:57:00.365Z,266.27
2018-01-11T21:59:03.081Z,211.93
2018-01-11T22:01:06.503Z,242.73
2018-01-11T22:03:09.147Z,256.10
2018-01-11T22:05:12.581Z,234.20
2018-01-11T22:07:15.217Z,225.10
2018-01-11T22:09:18.657Z,211.93
2018-01-11T22:11:21.310Z,273.33
2018-01-11T22:13:23.962Z,213.43
2018-01-11T22:15:27.386Z,208.63
2018-01-11T22:17:30.064Z,190.13
2018-01-11T22:19:32.751Z,215.40
2018-01-11T22:21:35.394Z,221.60
2018-01-11T22:23:38.040Z,195.60
2018-01-11T22:25:40.721Z,215.70
2018-01-11T22:27:43.393Z,209.27
2018-01-11T22:29:46.024Z,206.77
2018-01-11T22:31:48.701Z,203.60
2018-01-11T22:33:51.351Z,174.00
2018-01-11T22:35:54.020Z,181.03
2018-01-11T22:37:56.698Z,173.70
2018-01-11T22:39:59.356Z,172.97
2018-01-11T22:42:02.777Z,164.50
2018-01-11T22:44:05.442Z,169.40
2018-01-11T22:46:08.096Z,163.90
2018-01-11T22:48:11.519Z,179.27
2018-01-11T22:50:14.170Z,142.97
2018-01-11T22:52:17.608Z,161.33
2018-01-11T22:54:20.295Z,147.27
2018-01-11T22:56:22.982Z,148.27
2018-01-11T22:58:25.642Z,158.73
2018-01-11T23:00:28.320Z,157.77
2018-01-11T23:02:30.977Z,134.67
2018-01-11T23:04:33.657Z,156.77
2018-01-11T23:06:36.334Z,159.00
2018-01-11T23:08:38.987Z,141.40
2018-01-11T23:10:41.615Z,139.70
2018-01-11T23:12:44.285Z,176.30
2018-01-11T23:14:46.910Z,139.47
2018-01-11T23:16:49.568Z,152.90
2018-01-11T23:18:52.248Z,133.07
2018-01-11T23:20:54.899Z,165.90
2018-01-11T23:22:58.343Z,171.07
2018-01-11T23:25:01.018Z,164.50
2018-01-11T23:27:03.705Z,172.47
2018-01-11T23:29:06.385Z,174.50
2018-01-11T23:31:09.051Z,163.60
2018-01-11T23:33:11.694Z,165.00
2018-01-11T23:35:14.395Z,146.30
2018-01-11T23:37:17.077Z,126.57
2018-01-11T23:39:19.748Z,175.03
2018-01-11T23:41:22.409Z,152.97
2018-01-11T23:43:25.829Z,155.83
2018-01-11T23:45:28.505Z,173.50
2018-01-11T23:47:31.156Z,151.93
2018-01-11T23:49:33.845Z,160.90
2018-01-11T23:51:36.503Z,167.63
2018-01-11T23:53:39.140Z,159.93
2018-01-11T23:55:46.006Z,172.50
2018-01-11T23:57:49.426Z,190.03
2018-01-11T23:59:52.072Z,202.67
